sensor_id;sensor_type;location;lat;lon;timestamp;pressure;altitude;pressure_sealevel;temperature;humidity
14818;BME280;7500;57.698;11.986;2022-09-02T00:01:57;102563.63;;;15.69;100.00
14818;BME280;7500;57.698;11.986;2022-09-02T00:04:25;102501.66;;;15.45;100.00
14818;BME280;7500;57.698;11.986;2022-09-02T00:06:53;102573.00;;;15.77;100.00
14818;BME280;7500;57.698;11.986;2022-09-02T00:09:22;102568.88;;;15.70;100.00
14818;BME280;7500;57.698;11.986;2022-09-02T00:11:49;102562.97;;;15.64;100.00
14818;BME280;7500;57.698;11.986;2022-09-02T00:14:19;102563.81;;;15.44;100.00
14818;BME280;7500;57.698;11.986;2022-09-02T00:16:46;102568.59;;;15.36;100.00
14818;BME280;7500;57.698;11.986;2022-09-02T00:19:18;102565.34;;;15.50;100.00
14818;BME280;7500;57.698;11.986;2022-09-02T00:21:46;102568.13;;;15.47;100.00
14818;BME280;7500;57.698;11.986;2022-09-02T00:24:14;102575.59;;;15.59;100.00
14818;BME280;7500;57.698;11.986;2022-09-02T00:26:41;102572.31;;;15.74;100.00
14818;BME280;7500;57.698;11.986;2022-09-02T00:29:08;102573.00;;;15.77;100.00
14818;BME280;7500;57.698;11.986;2022-09-02T00:31:35;102498.72;;;15.31;100.00
14818;BME280;7500;57.698;11.986;2022-09-02T00:34:03;102575.56;;;15.60;100.00
14818;BME280;7500;57.698;11.986;2022-09-02T00:36:31;102569.34;;;15.40;100.00
14818;BME280;7500;57.698;11.986;2022-09-02T00:38:58;102580.38;;;15.31;100.00
14818;BME280;7500;57.698;11.986;2022-09-02T00:41:27;102576.47;;;15.39;100.00
14818;BME280;7500;57.698;11.986;2022-09-02T00:43:56;102580.53;;;15.48;100.00
14818;BME280;7500;57.698;11.986;2022-09-02T00:46:25;102579.22;;;15.58;100.00
14818;BME280;7500;57.698;11.986;2022-09-02T00:48:55;102576.53;;;15.58;100.00
14818;BME280;7500;57.698;11.986;2022-09-02T00:51:23;102562.03;;;15.45;100.00
14818;BME280;7500;57.698;11.986;2022-09-02T00:53:53;102563.56;;;15.50;100.00
14818;BME280;7500;57.698;11.986;2022-09-02T00:56:29;102567.88;;;15.53;100.00
14818;BME280;7500;57.698;11.986;2022-09-02T00:58:58;102572.41;;;15.51;100.00
14818;BME280;7500;57.698;11.986;2022-09-02T01:01:26;102568.63;;;15.56;100.00
14818;BME280;7500;57.698;11.986;2022-09-02T01:03:53;102571.16;;;15.59;100.00
14818;BME280;7500;57.698;11.986;2022-09-02T01:06:23;102575.94;;;15.51;100.00
14818;BME280;7500;57.698;11.986;2022-09-02T01:08:56;102579.66;;;15.26;100.00
14818;BME280;7500;57.698;11.986;2022-09-02T01:11:27;102574.34;;;15.26;100.00
14818;BME280;7500;57.698;11.986;2022-09-02T01:13:56;102567.50;;;15.20;100.00
14818;BME280;7500;57.698;11.986;2022-09-02T01:16:27;102570.59;;;15.10;100.00
14818;BME280;7500;57.698;11.986;2022-09-02T01:18:57;102576.91;;;15.07;100.00
14818;BME280;7500;57.698;11.986;2022-09-02T01:21:25;102574.31;;;15.06;100.00
14818;BME280;7500;57.698;11.986;2022-09-02T01:23:53;102563.34;;;14.92;100.00
14818;BME280;7500;57.698;11.986;2022-09-02T01:26:21;102565.53;;;14.82;100.00
14818;BME280;7500;57.698;11.986;2022-09-02T01:28:47;102567.88;;;14.90;100.00
14818;BME280;7500;57.698;11.986;2022-09-02T01:31:14;102566.50;;;14.59;100.00
14818;BME280;7500;57.698;11.986;2022-09-02T01:33:41;102554.03;;;14.38;100.00
14818;BME280;7500;57.698;11.986;2022-09-02T01:36:08;102553.22;;;14.59;100.00
14818;BME280;7500;57.698;11.986;2022-09-02T01:38:35;102560.31;;;14.79;100.00
14818;BME280;7500;57.698;11.986;2022-09-02T01:41:04;102563.16;;;14.96;100.00
14818;BME280;7500;57.698;11.986;2022-09-02T01:43:31;102555.72;;;15.04;100.00
14818;BME280;7500;57.698;11.986;2022-09-02T01:45:58;102545.78;;;15.09;100.00
14818;BME280;7500;57.698;11.986;2022-09-02T01:48:25;102558.94;;;15.12;100.00
14818;BME280;7500;57.698;11.986;2022-09-02T01:50:55;102555.19;;;14.96;100.00
14818;BME280;7500;57.698;11.986;2022-09-02T01:53:22;102560.81;;;14.89;100.00
14818;BME280;7500;57.698;11.986;2022-09-02T01:55:49;102559.28;;;14.83;100.00
14818;BME280;7500;57.698;11.986;2022-09-02T01:58:17;102564.03;;;14.75;100.00
14818;BME280;7500;57.698;11.986;2022-09-02T02:00:45;102557.22;;;14.68;100.00
14818;BME280;7500;57.698;11.986;2022-09-02T02:03:12;102564.66;;;14.61;100.00
14818;BME280;7500;57.698;11.986;2022-09-02T02:05:39;102558.09;;;14.69;100.00
14818;BME280;7500;57.698;11.986;2022-09-02T02:08:08;102556.16;;;14.72;100.00
14818;BME280;7500;57.698;11.986;2022-09-02T02:10:35;102561.38;;;14.75;100.00
14818;BME280;7500;57.698;11.986;2022-09-02T02:13:02;102558.66;;;14.77;100.00
14818;BME280;7500;57.698;11.986;2022-09-02T02:15:30;102558.66;;;14.77;100.00
14818;BME280;7500;57.698;11.986;2022-09-02T02:17:57;102561.94;;;14.83;100.00
14818;BME280;7500;57.698;11.986;2022-09-02T02:20:24;102561.69;;;14.68;100.00
14818;BME280;7500;57.698;11.986;2022-09-02T02:22:51;102561.81;;;14.65;100.00
14818;BME280;7500;57.698;11.986;2022-09-02T02:25:18;102559.50;;;14.77;100.00
14818;BME280;7500;57.698;11.986;2022-09-02T02:27:45;102559.44;;;14.79;100.00
14818;BME280;7500;57.698;11.986;2022-09-02T02:30:13;102565.38;;;14.64;100.00
14818;BME280;7500;57.698;11.986;2022-09-02T02:32:43;102563.06;;;14.78;100.00
14818;BME280;7500;57.698;11.986;2022-09-02T02:35:11;102570.97;;;14.79;100.00
14818;BME280;7500;57.698;11.986;2022-09-02T02:37:38;102556.41;;;14.67;100.00
14818;BME280;7500;57.698;11.986;2022-09-02T02:40:06;102566.03;;;14.48;100.00
14818;BME280;7500;57.698;11.986;2022-09-02T02:42:33;102563.84;;;14.36;100.00
14818;BME280;7500;57.698;11.986;2022-09-02T02:45:01;102551.84;;;14.26;100.00
14818;BME280;7500;57.698;11.986;2022-09-02T02:47:28;102568.56;;;14.28;100.00
14818;BME280;7500;57.698;11.986;2022-09-02T02:49:56;102562.59;;;14.23;100.00
14818;BME280;7500;57.698;11.986;2022-09-02T02:52:23;102566.78;;;14.28;100.00
14818;BME280;7500;57.698;11.986;2022-09-02T02:54:50;102569.34;;;14.31;100.00
14818;BME280;7500;57.698;11.986;2022-09-02T02:57:17;102571.22;;;14.28;100.00
14818;BME280;7500;57.698;11.986;2022-09-02T02:59:44;102574.47;;;14.36;100.00
14818;BME280;7500;57.698;11.986;2022-09-02T03:02:10;102566.34;;;14.40;100.00
14818;BME280;7500;57.698;11.986;2022-09-02T03:04:38;102566.09;;;14.46;100.00
14818;BME280;7500;57.698;11.986;2022-09-02T03:07:07;102570.94;;;14.58;100.00
14818;BME280;7500;57.698;11.986;2022-09-02T03:09:34;102543.88;;;14.26;100.00
14818;BME280;7500;57.698;11.986;2022-09-02T03:12:03;102572.84;;;14.32;100.00
14818;BME280;7500;57.698;11.986;2022-09-02T03:14:30;102565.06;;;14.27;100.00
14818;BME280;7500;57.698;11.986;2022-09-02T03:16:57;102582.28;;;14.40;100.00
14818;BME280;7500;57.698;11.986;2022-09-02T03:19:24;102578.94;;;14.35;100.00
14818;BME280;7500;57.698;11.986;2022-09-02T03:21:52;102547.63;;;13.96;100.00
14818;BME280;7500;57.698;11.986;2022-09-02T03:24:20;102582.03;;;13.99;100.00
14818;BME280;7500;57.698;11.986;2022-09-02T03:26:47;102585.47;;;14.02;100.00
14818;BME280;7500;57.698;11.986;2022-09-02T03:29:14;102581.31;;;14.20;100.00
14818;BME280;7500;57.698;11.986;2022-09-02T03:31:41;102581.09;;;14.26;100.00
14818;BME280;7500;57.698;11.986;2022-09-02T03:34:08;102580.19;;;14.25;100.00
14818;BME280;7500;57.698;11.986;2022-09-02T03:36:37;102576.44;;;14.31;100.00
14818;BME280;7500;57.698;11.986;2022-09-02T03:39:06;102587.59;;;14.40;100.00
14818;BME280;7500;57.698;11.986;2022-09-02T03:41:34;102585.69;;;14.44;100.00
14818;BME280;7500;57.698;11.986;2022-09-02T03:44:01;102588.16;;;14.48;100.00
14818;BME280;7500;57.698;11.986;2022-09-02T03:46:28;102581.25;;;14.44;100.00
14818;BME280;7500;57.698;11.986;2022-09-02T03:48:55;102576.38;;;14.32;100.00
14818;BME280;7500;57.698;11.986;2022-09-02T03:51:23;102576.53;;;14.28;100.00
14818;BME280;7500;57.698;11.986;2022-09-02T03:53:51;102558.63;;;14.10;100.00
14818;BME280;7500;57.698;11.986;2022-09-02T03:56:18;102572.78;;;14.10;100.00
14818;BME280;7500;57.698;11.986;2022-09-02T03:58:48;102570.06;;;14.12;100.00
14818;BME280;7500;57.698;11.986;2022-09-02T04:01:18;102562.94;;;14.12;100.00
14818;BME280;7500;57.698;11.986;2022-09-02T04:03:45;102568.41;;;14.32;100.00
14818;BME280;7500;57.698;11.986;2022-09-02T04:06:14;102573.63;;;14.35;100.00
14818;BME280;7500;57.698;11.986;2022-09-02T04:08:41;102566.00;;;14.26;100.00
14818;BME280;7500;57.698;11.986;2022-09-02T04:11:11;102571.38;;;14.25;100.00
14818;BME280;7500;57.698;11.986;2022-09-02T04:13:39;102577.84;;;14.18;100.00
14818;BME280;7500;57.698;11.986;2022-09-02T04:16:10;102581.59;;;14.11;100.00
14818;BME280;7500;57.698;11.986;2022-09-02T04:18:37;102582.31;;;13.91;100.00
14818;BME280;7500;57.698;11.986;2022-09-02T04:21:04;102582.38;;;13.90;100.00
14818;BME280;7500;57.698;11.986;2022-09-02T04:23:31;102589.75;;;13.82;100.00
14818;BME280;7500;57.698;11.986;2022-09-02T04:26:03;102589.47;;;13.89;100.00
14818;BME280;7500;57.698;11.986;2022-09-02T04:28:30;102581.81;;;14.05;100.00
14818;BME280;7500;57.698;11.986;2022-09-02T04:30:57;102582.53;;;14.10;100.00
14818;BME280;7500;57.698;11.986;2022-09-02T04:33:25;102578.94;;;14.11;100.00
14818;BME280;7500;57.698;11.986;2022-09-02T04:35:52;102579.88;;;14.10;100.00
14818;BME280;7500;57.698;11.986;2022-09-02T04:38:18;102581.59;;;14.11;100.00
14818;BME280;7500;57.698;11.986;2022-09-02T04:40:46;102581.53;;;14.14;100.00
14818;BME280;7500;57.698;11.986;2022-09-02T04:43:13;102576.34;;;14.09;100.00
14818;BME280;7500;57.698;11.986;2022-09-02T04:45:41;102579.88;;;14.10;100.00
14818;BME280;7500;57.698;11.986;2022-09-02T04:48:08;102577.38;;;14.05;100.00
14818;BME280;7500;57.698;11.986;2022-09-02T04:50:38;102584.78;;;14.22;100.00
14818;BME280;7500;57.698;11.986;2022-09-02T04:53:05;102587.72;;;14.37;100.00
14818;BME280;7500;57.698;11.986;2022-09-02T04:55:32;102586.56;;;14.44;100.00
14818;BME280;7500;57.698;11.986;2022-09-02T04:57:59;102588.00;;;14.53;100.00
14818;BME280;7500;57.698;11.986;2022-09-02T05:00:26;102591.47;;;14.55;100.00
14818;BME280;7500;57.698;11.986;2022-09-02T05:02:53;102579.78;;;14.59;100.00
14818;BME280;7500;57.698;11.986;2022-09-02T05:05:20;102578.69;;;14.64;100.00
14818;BME280;7500;57.698;11.986;2022-09-02T05:07:48;102582.28;;;14.40;100.00
14818;BME280;7500;57.698;11.986;2022-09-02T05:10:15;102585.22;;;14.33;100.00
14818;BME280;7500;57.698;11.986;2022-09-02T05:12:43;102565.19;;;14.24;100.00
14818;BME280;7500;57.698;11.986;2022-09-02T05:15:10;102578.59;;;14.44;100.00
14818;BME280;7500;57.698;11.986;2022-09-02T05:17:37;102585.06;;;14.37;100.00
14818;BME280;7500;57.698;11.986;2022-09-02T05:20:07;102581.94;;;14.26;100.00
14818;BME280;7500;57.698;11.986;2022-09-02T05:22:35;102581.81;;;14.29;100.00
14818;BME280;7500;57.698;11.986;2022-09-02T05:25:04;102578.16;;;14.32;100.00
14818;BME280;7500;57.698;11.986;2022-09-02T05:27:33;102575.81;;;14.24;100.00
14818;BME280;7500;57.698;11.986;2022-09-02T05:30:00;102508.06;;;13.88;100.00
14818;BME280;7500;57.698;11.986;2022-09-02T05:32:27;102578.28;;;14.29;100.00
14818;BME280;7500;57.698;11.986;2022-09-02T05:34:55;102580.81;;;14.32;100.00
14818;BME280;7500;57.698;11.986;2022-09-02T05:37:23;102577.94;;;14.38;100.00
14818;BME280;7500;57.698;11.986;2022-09-02T05:39:50;102550.22;;;14.22;100.00
14818;BME280;7500;57.698;11.986;2022-09-02T05:42:19;102572.50;;;14.41;100.00
14818;BME280;7500;57.698;11.986;2022-09-02T05:44:46;102575.13;;;14.42;100.00
14818;BME280;7500;57.698;11.986;2022-09-02T05:47:13;102567.81;;;14.47;100.00
14818;BME280;7500;57.698;11.986;2022-09-02T05:49:40;102569.97;;;14.61;100.00
14818;BME280;7500;57.698;11.986;2022-09-02T05:52:07;102573.25;;;14.67;100.00
14818;BME280;7500;57.698;11.986;2022-09-02T05:54:37;102580.34;;;14.67;100.00
14818;BME280;7500;57.698;11.986;2022-09-02T05:57:07;102581.94;;;14.70;100.00
14818;BME280;7500;57.698;11.986;2022-09-02T05:59:36;102575.72;;;14.71;100.00
14818;BME280;7500;57.698;11.986;2022-09-02T06:02:04;102577.28;;;14.77;100.00
14818;BME280;7500;57.698;11.986;2022-09-02T06:04:35;102575.28;;;14.82;100.00
14818;BME280;7500;57.698;11.986;2022-09-02T06:07:02;102569.91;;;14.83;100.00
14818;BME280;7500;57.698;11.986;2022-09-02T06:09:28;102584.03;;;14.85;100.00
14818;BME280;7500;57.698;11.986;2022-09-02T06:11:55;102574.44;;;14.81;100.00
14818;BME280;7500;57.698;11.986;2022-09-02T06:14:23;102552.00;;;14.66;100.00
14818;BME280;7500;57.698;11.986;2022-09-02T06:16:53;102575.16;;;14.85;100.00
14818;BME280;7500;57.698;11.986;2022-09-02T06:19:22;102590.94;;;14.89;100.00
14818;BME280;7500;57.698;11.986;2022-09-02T06:21:51;102589.38;;;14.84;100.00
14818;BME280;7500;57.698;11.986;2022-09-02T06:24:18;102593.53;;;14.91;100.00
14818;BME280;7500;57.698;11.986;2022-09-02T06:26:45;102601.28;;;14.97;100.00
14818;BME280;7500;57.698;11.986;2022-09-02T06:29:12;102597.44;;;15.04;100.00
14818;BME280;7500;57.698;11.986;2022-09-02T06:31:41;102597.13;;;15.11;100.00
14818;BME280;7500;57.698;11.986;2022-09-02T06:34:10;102590.16;;;15.09;100.00
14818;BME280;7500;57.698;11.986;2022-09-02T06:36:39;102597.13;;;15.11;100.00
14818;BME280;7500;57.698;11.986;2022-09-02T06:39:08;102608.50;;;15.15;100.00
14818;BME280;7500;57.698;11.986;2022-09-02T06:41:38;102595.28;;;15.13;100.00
14818;BME280;7500;57.698;11.986;2022-09-02T06:44:07;102609.84;;;15.26;100.00
14818;BME280;7500;57.698;11.986;2022-09-02T06:46:36;102603.16;;;15.38;100.00
14818;BME280;7500;57.698;11.986;2022-09-02T06:49:06;102604.00;;;15.38;100.00
14818;BME280;7500;57.698;11.986;2022-09-02T06:51:36;102512.38;;;14.81;100.00
14818;BME280;7500;57.698;11.986;2022-09-02T06:54:05;102608.34;;;15.41;100.00
14818;BME280;7500;57.698;11.986;2022-09-02T06:56:32;102601.78;;;15.49;100.00
14818;BME280;7500;57.698;11.986;2022-09-02T06:58:59;102603.97;;;15.60;100.00
14818;BME280;7500;57.698;11.986;2022-09-02T07:01:28;102609.03;;;15.66;100.00
14818;BME280;7500;57.698;11.986;2022-09-02T07:03:55;102598.97;;;15.72;100.00
14818;BME280;7500;57.698;11.986;2022-09-02T07:06:43;102601.16;;;15.82;100.00
14818;BME280;7500;57.698;11.986;2022-09-02T07:09:14;102597.53;;;15.85;100.00
14818;BME280;7500;57.698;11.986;2022-09-02T07:11:41;102599.78;;;15.94;100.00
14818;BME280;7500;57.698;11.986;2022-09-02T07:14:12;102598.56;;;16.01;100.00
14818;BME280;7500;57.698;11.986;2022-09-02T07:16:44;102582.19;;;16.10;100.00
14818;BME280;7500;57.698;11.986;2022-09-02T07:19:11;102588.75;;;16.21;100.00
14818;BME280;7500;57.698;11.986;2022-09-02T07:21:39;102584.03;;;16.28;100.00
14818;BME280;7500;57.698;11.986;2022-09-02T07:24:09;102578.69;;;16.28;100.00
14818;BME280;7500;57.698;11.986;2022-09-02T07:26:37;102588.00;;;16.38;100.00
14818;BME280;7500;57.698;11.986;2022-09-02T07:29:05;102586.09;;;16.41;100.00
14818;BME280;7500;57.698;11.986;2022-09-02T07:31:34;102588.38;;;16.49;100.00
14818;BME280;7500;57.698;11.986;2022-09-02T07:34:01;102583.47;;;16.58;100.00
14818;BME280;7500;57.698;11.986;2022-09-02T07:36:29;102584.69;;;16.70;100.00
14818;BME280;7500;57.698;11.986;2022-09-02T07:38:56;102577.16;;;16.79;100.00
14818;BME280;7500;57.698;11.986;2022-09-02T07:41:24;102587.34;;;16.88;100.00
14818;BME280;7500;57.698;11.986;2022-09-02T07:43:51;102579.94;;;16.95;100.00
14818;BME280;7500;57.698;11.986;2022-09-02T07:46:18;102578.66;;;17.01;100.00
14818;BME280;7500;57.698;11.986;2022-09-02T07:48:45;102576.94;;;17.00;100.00
14818;BME280;7500;57.698;11.986;2022-09-02T07:51:15;102582.94;;;17.05;100.00
14818;BME280;7500;57.698;11.986;2022-09-02T07:53:43;102578.38;;;17.07;100.00
14818;BME280;7500;57.698;11.986;2022-09-02T07:56:11;102586.88;;;17.15;100.00
14818;BME280;7500;57.698;11.986;2022-09-02T07:58:41;102592.22;;;17.15;100.00
14818;BME280;7500;57.698;11.986;2022-09-02T08:01:09;102589.25;;;17.21;100.00
14818;BME280;7500;57.698;11.986;2022-09-02T08:03:36;102589.16;;;17.23;100.00
14818;BME280;7500;57.698;11.986;2022-09-02T08:06:04;102586.44;;;17.24;100.00
14818;BME280;7500;57.698;11.986;2022-09-02T08:08:31;102592.13;;;17.35;100.00
14818;BME280;7500;57.698;11.986;2022-09-02T08:10:59;102583.09;;;17.38;100.00
14818;BME280;7500;57.698;11.986;2022-09-02T08:13:26;102584.53;;;17.45;100.00
14818;BME280;7500;57.698;11.986;2022-09-02T08:15:55;102581.53;;;17.51;100.00
14818;BME280;7500;57.698;11.986;2022-09-02T08:18:22;102583.34;;;17.50;100.00
14818;BME280;7500;57.698;11.986;2022-09-02T08:20:49;102586.66;;;17.55;100.00
14818;BME280;7500;57.698;11.986;2022-09-02T08:23:16;102584.78;;;17.57;100.00
14818;BME280;7500;57.698;11.986;2022-09-02T08:25:43;102581.69;;;17.65;100.00
14818;BME280;7500;57.698;11.986;2022-09-02T08:28:10;102582.38;;;17.68;100.00
14818;BME280;7500;57.698;11.986;2022-09-02T08:30:37;102526.50;;;17.30;100.00
14818;BME280;7500;57.698;11.986;2022-09-02T08:33:05;102593.81;;;17.72;100.00
14818;BME280;7500;57.698;11.986;2022-09-02T08:35:32;102595.53;;;17.73;100.00
14818;BME280;7500;57.698;11.986;2022-09-02T08:37:59;102587.56;;;17.71;100.00
14818;BME280;7500;57.698;11.986;2022-09-02T08:40:30;102595.28;;;17.77;100.00
14818;BME280;7500;57.698;11.986;2022-09-02T08:43:01;102565.88;;;17.77;100.00
14818;BME280;7500;57.698;11.986;2022-09-02T08:45:31;102584.75;;;17.91;100.00
14818;BME280;7500;57.698;11.986;2022-09-02T08:48:05;102584.44;;;17.97;100.00
14818;BME280;7500;57.698;11.986;2022-09-02T08:50:38;102583.56;;;17.97;100.00
14818;BME280;7500;57.698;11.986;2022-09-02T08:53:10;102596.22;;;17.93;100.00
14818;BME280;7500;57.698;11.986;2022-09-02T08:55:45;102588.03;;;17.96;100.00
14818;BME280;7500;57.698;11.986;2022-09-02T08:58:16;102606.75;;;17.96;100.00
14818;BME280;7500;57.698;11.986;2022-09-02T09:00:50;102592.03;;;18.05;100.00
14818;BME280;7500;57.698;11.986;2022-09-02T09:03:26;102598.06;;;18.08;100.00
14818;BME280;7500;57.698;11.986;2022-09-02T09:06:02;102598.06;;;18.08;100.00
14818;BME280;7500;57.698;11.986;2022-09-02T09:08:37;102601.53;;;18.10;100.00
14818;BME280;7500;57.698;11.986;2022-09-02T09:11:15;102599.56;;;18.14;100.00
14818;BME280;7500;57.698;11.986;2022-09-02T09:14:00;102588.63;;;18.18;100.00
14818;BME280;7500;57.698;11.986;2022-09-02T09:16:36;102589.97;;;18.26;100.00
14818;BME280;7500;57.698;11.986;2022-09-02T09:19:09;102587.91;;;18.31;100.00
14818;BME280;7500;57.698;11.986;2022-09-02T09:21:39;102586.81;;;18.35;100.00
14818;BME280;7500;57.698;11.986;2022-09-02T09:24:16;102579.72;;;18.34;100.00
14818;BME280;7500;57.698;11.986;2022-09-02T09:26:44;102587.47;;;18.39;100.00
14818;BME280;7500;57.698;11.986;2022-09-02T09:29:12;102578.69;;;18.37;100.00
14818;BME280;7500;57.698;11.986;2022-09-02T09:31:39;102584.97;;;18.36;100.00
14818;BME280;7500;57.698;11.986;2022-09-02T09:34:10;102584.75;;;18.40;100.00
14818;BME280;7500;57.698;11.986;2022-09-02T09:36:48;102572.38;;;18.38;100.00
14818;BME280;7500;57.698;11.986;2022-09-02T09:39:24;102581.63;;;18.48;100.00
14818;BME280;7500;57.698;11.986;2022-09-02T09:41:52;102579.91;;;18.47;100.00
14818;BME280;7500;57.698;11.986;2022-09-02T09:44:39;102586.31;;;18.44;100.00
14818;BME280;7500;57.698;11.986;2022-09-02T09:47:12;102571.19;;;18.43;100.00
14818;BME280;7500;57.698;11.986;2022-09-02T09:49:41;102574.66;;;18.45;100.00
14818;BME280;7500;57.698;11.986;2022-09-02T09:52:09;102583.38;;;18.49;100.00
14818;BME280;7500;57.698;11.986;2022-09-02T09:54:37;102575.63;;;18.60;100.00
14818;BME280;7500;57.698;11.986;2022-09-02T09:57:16;102578.63;;;18.69;100.00
14818;BME280;7500;57.698;11.986;2022-09-02T09:59:46;102568.03;;;18.68;100.00
14818;BME280;7500;57.698;11.986;2022-09-02T10:02:19;102575.53;;;18.77;100.00
14818;BME280;7500;57.698;11.986;2022-09-02T10:04:47;102572.25;;;18.72;100.00
14818;BME280;7500;57.698;11.986;2022-09-02T10:07:33;102573.91;;;18.74;100.00
14818;BME280;7500;57.698;11.986;2022-09-02T10:10:11;102567.31;;;18.80;100.00
14818;BME280;7500;57.698;11.986;2022-09-02T10:12:40;102558.34;;;18.81;100.00
14818;BME280;7500;57.698;11.986;2022-09-02T10:15:08;102573.44;;;18.97;100.00
14818;BME280;7500;57.698;11.986;2022-09-02T10:17:42;102569.16;;;18.95;100.00
14818;BME280;7500;57.698;11.986;2022-09-02T10:20:17;102576.41;;;18.93;100.00
14818;BME280;7500;57.698;11.986;2022-09-02T10:23:08;102568.97;;;18.98;100.00
14818;BME280;7500;57.698;11.986;2022-09-02T10:25:48;102558.88;;;19.03;100.00
14818;BME280;7500;57.698;11.986;2022-09-02T10:28:29;102566.53;;;19.09;100.00
14818;BME280;7500;57.698;11.986;2022-09-02T10:31:05;102562.56;;;19.16;100.00
14818;BME280;7500;57.698;11.986;2022-09-02T10:33:54;102560.50;;;19.21;100.00
14818;BME280;7500;57.698;11.986;2022-09-02T10:36:31;102563.41;;;19.32;100.00
14818;BME280;7500;57.698;11.986;2022-09-02T10:39:10;102565.72;;;19.37;100.00
14818;BME280;7500;57.698;11.986;2022-09-02T10:41:43;102559.03;;;19.44;100.00
14818;BME280;7500;57.698;11.986;2022-09-02T10:44:23;102556.72;;;19.54;100.00
14818;BME280;7500;57.698;11.986;2022-09-02T10:46:59;102555.66;;;19.56;100.00
14818;BME280;7500;57.698;11.986;2022-09-02T10:49:37;102557.38;;;19.57;100.00
14818;BME280;7500;57.698;11.986;2022-09-02T10:52:13;102552.50;;;19.64;100.00
14818;BME280;7500;57.698;11.986;2022-09-02T10:54:51;102551.19;;;19.71;100.00
14818;BME280;7500;57.698;11.986;2022-09-02T10:57:25;102544.22;;;19.96;100.00
14818;BME280;7500;57.698;11.986;2022-09-02T10:59:58;102538.41;;;20.04;100.00
14818;BME280;7500;57.698;11.986;2022-09-02T11:02:31;102542.34;;;20.12;100.00
14818;BME280;7500;57.698;11.986;2022-09-02T11:05:03;102537.69;;;20.70;100.00
14818;BME280;7500;57.698;11.986;2022-09-02T11:07:38;102545.13;;;20.79;100.00
14818;BME280;7500;57.698;11.986;2022-09-02T11:10:14;102547.28;;;20.60;100.00
14818;BME280;7500;57.698;11.986;2022-09-02T11:12:46;102541.53;;;20.52;100.00
14818;BME280;7500;57.698;11.986;2022-09-02T11:15:18;102531.31;;;20.45;100.00
14818;BME280;7500;57.698;11.986;2022-09-02T11:17:51;102534.06;;;20.43;100.00
14818;BME280;7500;57.698;11.986;2022-09-02T11:20:29;102526.78;;;20.45;100.00
14818;BME280;7500;57.698;11.986;2022-09-02T11:23:05;102524.16;;;20.71;100.00
14818;BME280;7500;57.698;11.986;2022-09-02T11:25:40;102523.75;;;21.43;96.66
14818;BME280;7500;57.698;11.986;2022-09-02T11:28:26;102531.38;;;21.63;87.78
14818;BME280;7500;57.698;11.986;2022-09-02T11:31:00;102516.19;;;21.10;92.42
14818;BME280;7500;57.698;11.986;2022-09-02T11:33:40;102527.94;;;20.95;94.04
14818;BME280;7500;57.698;11.986;2022-09-02T11:36:10;102531.69;;;21.19;96.38
14818;BME280;7500;57.698;11.986;2022-09-02T11:38:41;102529.69;;;21.09;91.79
14818;BME280;7500;57.698;11.986;2022-09-02T11:41:25;102527.59;;;21.26;89.07
14818;BME280;7500;57.698;11.986;2022-09-02T11:43:56;102515.84;;;21.15;89.50
14818;BME280;7500;57.698;11.986;2022-09-02T11:46:45;102530.88;;;21.05;91.74
14818;BME280;7500;57.698;11.986;2022-09-02T11:49:31;102527.75;;;21.50;93.55
14818;BME280;7500;57.698;11.986;2022-09-02T11:52:17;102529.06;;;21.44;91.30
14818;BME280;7500;57.698;11.986;2022-09-02T11:55:00;102518.03;;;22.95;88.86
14818;BME280;7500;57.698;11.986;2022-09-02T11:57:31;102510.44;;;25.00;79.13
14818;BME280;7500;57.698;11.986;2022-09-02T12:00:05;102504.09;;;24.90;76.66
14818;BME280;7500;57.698;11.986;2022-09-02T12:02:39;102498.44;;;24.18;78.03
14818;BME280;7500;57.698;11.986;2022-09-02T12:08:12;102505.56;;;24.83;75.29
14818;BME280;7500;57.698;11.986;2022-09-02T12:11:01;102493.53;;;24.87;76.08
14818;BME280;7500;57.698;11.986;2022-09-02T12:13:35;102500.13;;;24.41;75.07
14818;BME280;7500;57.698;11.986;2022-09-02T12:16:34;102501.38;;;24.26;77.98
14818;BME280;7500;57.698;11.986;2022-09-02T12:19:38;102496.63;;;23.73;75.81
14818;BME280;7500;57.698;11.986;2022-09-02T12:22:24;102501.75;;;23.65;73.74
14818;BME280;7500;57.698;11.986;2022-09-02T12:24:53;102490.47;;;23.49;77.32
14818;BME280;7500;57.698;11.986;2022-09-02T12:27:23;102486.16;;;23.36;73.46
14818;BME280;7500;57.698;11.986;2022-09-02T12:29:52;102488.94;;;23.23;78.27
14818;BME280;7500;57.698;11.986;2022-09-02T12:35:48;102496.28;;;23.32;77.84
14818;BME280;7500;57.698;11.986;2022-09-02T12:38:30;102486.09;;;23.59;76.69
14818;BME280;7500;57.698;11.986;2022-09-02T12:43:52;102489.97;;;23.79;78.40
14818;BME280;7500;57.698;11.986;2022-09-02T12:46:33;102476.34;;;23.80;74.74
14818;BME280;7500;57.698;11.986;2022-09-02T12:49:31;102479.53;;;23.85;73.33
14818;BME280;7500;57.698;11.986;2022-09-02T12:52:00;102482.03;;;23.65;73.57
14818;BME280;7500;57.698;11.986;2022-09-02T12:54:35;102484.19;;;23.49;74.04
14818;BME280;7500;57.698;11.986;2022-09-02T12:57:06;102480.63;;;23.37;74.19
14818;BME280;7500;57.698;11.986;2022-09-02T12:59:36;102482.75;;;23.10;74.02
14818;BME280;7500;57.698;11.986;2022-09-02T13:02:14;102485.13;;;23.02;75.22
14818;BME280;7500;57.698;11.986;2022-09-02T13:04:52;102481.19;;;23.19;73.39
14818;BME280;7500;57.698;11.986;2022-09-02T13:10:41;102474.63;;;23.34;79.36